Data for 01/19/2016

Time Sea-Level Adjusted Pressure Absolute Pressure Temperature Relative Humidity Dew Point   
(mb) (inHg) (mb) (inHg) (C) (F) (%) (C) (F)
00:05 1019 30.09 849 25.07 -2.5 27.5 82 -5.1 22.8
00:10 1019 30.09 849 25.07 -2.5 27.5 82 -5.2 22.6
00:15 1019 30.09 849 25.07 -2.7 27.2 83 -5.2 22.6
00:20 1019 30.09 849 25.07 -2.7 27.2 83 -5.1 22.8
00:25 1019 30.09 849 25.07 -2.4 27.7 81 -5.2 22.6
00:30 1019 30.09 849 25.07 -2.1 28.3 81 -4.9 23.2
00:35 1019 30.09 849 25.07 -2.1 28.1 82 -4.8 23.4
00:40 1019 30.09 849 25.07 -2.1 28.3 81 -4.9 23.2
00:45 1019 30.09 849 25.07 -2.2 28.1 82 -4.8 23.4
00:50 1019 30.09 849 25.07 -2 28.5 82 -4.6 23.8
00:55 1019 30.09 849 25.07 -1.8 28.8 82 -4.4 24
01:00 1020 30.12 849 25.07 -1.6 29.1 82 -4.3 24.2
01:05 1020 30.12 849 25.07 -1.6 29 81 -4.5 24
01:10 1020 30.12 849 25.07 -1.9 28.5 82 -4.6 23.7
01:15 1020 30.12 849 25.07 -2.3 27.9 83 -4.8 23.4
01:20 1020 30.12 849 25.07 -2.6 27.4 85 -4.8 23.4
01:25 1020 30.12 849 25.07 -2.6 27.4 85 -4.7 23.5
01:30 1020 30.12 849 25.07 -2.4 27.6 84 -4.8 23.4
01:35 1020 30.12 849 25.07 -2.6 27.3 84 -4.9 23.2
01:40 1020 30.12 849 25.07 -2.9 26.9 84 -5.2 22.6
01:45 1020 30.12 849 25.07 -3.3 26.1 85 -5.4 22.3
01:50 1020 30.12 849 25.07 -3.3 26.1 86 -5.4 22.3
01:55 1020 30.12 849 25.07 -2.8 27 85 -5 23
02:00 1020 30.12 849 25.07 -2.5 27.4 84 -4.9 23.1
02:05 1019 30.09 849 25.07 -2.5 27.6 83 -4.9 23.2
02:10 1019 30.09 849 25.07 -2.4 27.7 85 -4.5 23.8
02:15 1019 30.09 849 25.07 -2.5 27.4 87 -4.4 24.1
02:20 1019 30.09 849 25.07 -2.5 27.5 87 -4.3 24.2
02:25 1019 30.09 849 25.07 -2.4 27.7 87 -4.3 24.2
02:30 1019 30.09 849 25.07 -2.4 27.6 87 -4.3 24.2
02:35 1020 30.12 849 25.07 -2.2 28 84 -4.5 23.9
02:40 1020 30.12 849 25.07 -2.1 28.1 84 -4.5 23.9
02:45 1019 30.09 849 25.07 -2.4 27.6 86 -4.5 23.9
02:50 1020 30.12 849 25.07 -2.5 27.5 86 -4.6 23.8
02:55 1019 30.09 849 25.07 -2.6 27.3 86 -4.6 23.7
03:00 1019 30.09 849 25.07 -2.6 27.3 86 -4.7 23.5
03:05 1019 30.09 849 25.07 -2.9 26.8 85 -5 23
03:10 1020 30.12 849 25.07 -3.2 26.3 87 -5.1 22.9
03:15 1020 30.12 849 25.07 -3.2 26.2 87 -5.1 22.9
03:20 1019 30.09 849 25.07 -3.1 26.4 88 -4.9 23.2
03:25 1020 30.12 849 25.07 -3 26.6 87 -4.9 23.2
03:30 1020 30.12 849 25.07 -2.9 26.8 86 -4.9 23.2
03:35 1019 30.09 849 25.07 -2.9 26.8 85 -5.1 22.8
03:40 1020 30.12 849 25.07 -3.4 25.8 86 -5.5 22.2
03:45 1019 30.09 849 25.07 -3.6 25.4 84 -5.9 21.4
03:50 1019 30.09 849 25.07 -3.3 26 83 -5.8 21.5
03:55 1019 30.09 848 25.04 -3.1 26.3 82 -5.8 21.6
04:00 1019 30.09 848 25.04 -3.4 25.9 82 -6 21.3
04:05 1019 30.09 848 25.04 -3.7 25.3 83 -6.2 20.8
04:10 1019 30.09 848 25.04 -3.7 25.4 81 -6.4 20.4
04:15 1019 30.09 848 25.04 -3.6 25.6 79 -6.6 20.1
04:20 1019 30.09 848 25.04 -3.5 25.7 78 -6.8 19.7
04:25 1019 30.09 848 25.04 -3.6 25.4 76 -7.2 19
04:30 1019 30.09 848 25.04 -3.5 25.7 76 -7.2 19.1
04:35 1019 30.09 848 25.04 -3.2 26.2 75 -7 19.4
04:40 1019 30.09 848 25.04 -3.5 25.7 79 -6.7 20
04:45 1019 30.09 848 25.04 -3.7 25.3 80 -6.6 20.1
04:50 1019 30.09 848 25.04 -3.8 25.2 81 -6.7 20
04:55 1019 30.09 848 25.04 -3.9 25 81 -6.7 20
05:00 1019 30.09 848 25.04 -3.9 25 82 -6.6 20.2
05:05 1019 30.09 848 25.04 -4 24.8 81 -6.8 19.7
05:10 1019 30.09 848 25.04 -4 24.8 80 -7 19.4
05:15 1019 30.09 848 25.04 -4.1 24.6 79 -7.2 19.1
05:20 1019 30.09 848 25.04 -4.2 24.5 80 -7.1 19.2
05:25 1018 30.06 848 25.04 -4.1 24.6 78 -7.3 18.8
05:30 1018 30.06 848 25.04 -4.1 24.6 77 -7.5 18.4
05:35 1018 30.06 848 25.04 -4 24.8 76 -7.6 18.3
05:40 1018 30.06 848 25.04 -3.9 25 77 -7.4 18.6
05:45 1018 30.06 848 25.04 -4 24.8 77 -7.5 18.5
05:50 1018 30.06 847 25.01 -3.7 25.4 75 -7.5 18.6
05:55 1018 30.06 847 25.01 -3.5 25.7 74 -7.4 18.7
06:00 1018 30.06 847 25.01 -3.5 25.6 75 -7.4 18.7
06:05 1018 30.06 847 25.01 -3.6 25.4 75 -7.4 18.6
06:10 1018 30.06 847 25.01 -3.6 25.6 75 -7.4 18.6
06:15 1018 30.06 847 25.01 -3.6 25.5 75 -7.5 18.5
06:20 1018 30.06 847 25.01 -3.8 25.2 75 -7.6 18.4
06:25 1018 30.06 847 25.01 -3.9 25 75 -7.6 18.3
06:30 1018 30.06 847 25.01 -3.9 24.9 75 -7.7 18.2
06:35 1018 30.06 847 25.01 -4 24.8 76 -7.7 18.2
06:40 1018 30.06 847 25.01 -3.8 25.1 74 -7.8 18
06:45 1018 30.06 847 25.01 -3.5 25.7 72 -7.9 17.8
06:50 1018 30.06 847 25.01 -3.9 25.1 74 -7.9 17.8
06:55 1018 30.06 847 25.01 -4.2 24.5 74 -8.2 17.2
07:00 1018 30.06 847 25.01 -4.1 24.6 74 -8.1 17.4
07:05 1018 30.06 847 25.01 -4.1 24.5 74 -8.2 17.3
07:10 1018 30.06 847 25.01 -4.1 24.6 73 -8.2 17.3
07:15 1018 30.06 847 25.01 -4.2 24.5 73 -8.2 17.2
07:20 1018 30.06 847 25.01 -4.1 24.6 73 -8.3 17.1
07:25 1018 30.06 847 25.01 -4.1 24.7 72 -8.4 16.8
07:30 1018 30.06 847 25.01 -3.8 25.1 71 -8.3 17.1
07:35 1018 30.06 847 25.01 -3.7 25.3 71 -8.2 17.3
07:40 1018 30.06 847 25.01 -3.5 25.6 71 -8.1 17.4
07:45 1018 30.06 847 25.01 -3.6 25.6 71 -8.1 17.4
07:50 1018 30.06 847 25.01 -3.8 25.2 72 -8 17.5
07:55 1018 30.06 847 25.01 -3.9 25 72 -8.3 17.1
08:00 1018 30.06 847 25.01 -4 24.8 72 -8.3 17
08:05 1018 30.06 847 25.01 -4.2 24.5 72 -8.5 16.6
08:10 1018 30.06 847 25.01 -4.4 24 72 -8.7 16.4
08:15 1018 30.06 847 25.01 -4.5 23.9 72 -8.8 16.1
08:20 1018 30.06 847 25.01 -4.3 24.2 72 -8.7 16.3
08:25 1018 30.06 847 25.01 -4.5 24 73 -8.6 16.5
08:30 1018 30.06 847 25.01 -4.5 23.8 74 -8.5 16.7
08:35 1018 30.06 847 25.01 -4.4 24 74 -8.4 16.9
08:40 1018 30.06 847 25.01 -4.4 24.1 74 -8.4 16.9
08:45 1018 30.06 847 25.01 -4.4 24.1 74 -8.3 17
08:50 1018 30.06 847 25.01 -4.5 24 74 -8.5 16.8
08:55 1018 30.06 847 25.01 -4.3 24.2 73 -8.5 16.6
09:00 1018 30.06 847 25.01 -4.2 24.4 72 -8.5 16.8
09:05 1018 30.06 847 25.01 -4.1 24.6 72 -8.4 16.9
09:10 1018 30.06 847 25.01 -4.2 24.4 72 -8.6 16.6
09:15 1018 30.06 847 25.01 -4.4 24.1 72 -8.6 16.5
09:20 1018 30.06 847 25.01 -4.6 23.7 73 -8.7 16.4
09:25 1018 30.06 847 25.01 -4.8 23.4 74 -8.7 16.3
09:30 1018 30.06 847 25.01 -4.6 23.7 73 -8.7 16.3
09:35 1018 30.06 847 25.01 -4.4 24.1 73 -8.6 16.6
09:40 1018 30.06 847 25.01 -4.3 24.3 73 -8.5 16.7
09:45 1018 30.06 847 25.01 -4.2 24.5 72 -8.5 16.7
09:50 1018 30.06 847 25.01 -4.1 24.6 72 -8.5 16.7
09:55 1018 30.06 847 25.01 -4.2 24.5 73 -8.4 16.9
10:00 1018 30.06 847 25.01 -4.2 24.4 73 -8.4 16.9
10:05 1018 30.06 847 25.01 -4.3 24.2 74 -8.4 17
10:10 1018 30.06 847 25.01 -4.3 24.2 73 -8.4 16.8
10:15 1018 30.06 847 25.01 -4.2 24.4 73 -8.4 17
10:20 1018 30.06 847 25.01 -4.2 24.5 73 -8.3 17
10:25 1018 30.06 847 25.01 -4.1 24.7 72 -8.3 17
10:30 1018 30.06 847 25.01 -3.9 25 72 -8.3 17.1
10:35 1018 30.06 847 25.01 -3.8 25.1 72 -8.1 17.4
10:40 1018 30.06 847 25.01 -3.7 25.3 71 -8.2 17.3
10:45 1018 30.06 847 25.01 -3.7 25.3 72 -8.1 17.4
10:50 1018 30.06 847 25.01 -3.6 25.4 72 -8 17.5
10:55 1018 30.06 847 25.01 -3.5 25.8 70 -8.2 17.2
11:00 1018 30.06 847 25.01 -3.2 26.2 69 -8.1 17.4
11:05 1018 30.06 848 25.04 -3 26.6 68 -8 17.6
11:10 1018 30.06 847 25.01 -2.7 27.1 68 -7.9 17.8
11:15 1018 30.06 847 25.01 -2.6 27.4 67 -7.8 17.9
11:20 1018 30.06 847 25.01 -2.4 27.6 68 -7.5 18.5
11:25 1018 30.06 847 25.01 -2.3 27.9 68 -7.4 18.6
11:30 1018 30.06 847 25.01 -2.2 28 69 -7.3 18.9
11:35 1018 30.06 847 25.01 -2.2 28 68 -7.2 19
11:40 1018 30.06 847 25.01 -2.1 28.3 66 -7.5 18.4
11:45 1018 30.06 847 25.01 -2.4 27.7 67 -7.7 18.1
11:50 1018 30.06 847 25.01 -2.2 28 65 -7.9 17.8
11:55 1018 30.06 847 25.01 -1.5 29.3 64 -7.5 18.4
12:00 1018 30.06 847 25.01 -0.8 30.6 61 -7.4 18.7
12:05 1018 30.06 847 25.01 -0.1 31.8 59 -7.2 19.1
12:10 1018 30.06 847 25.01 0.1 32.2 57 -7.5 18.5
12:15 1018 30.06 847 25.01 -0.1 31.9 58 -7.3 18.8
12:20 1018 30.06 847 25.01 0.1 32.2 57 -7.3 18.8
12:25 1018 30.06 847 25.01 0.2 32.3 60 -6.6 20
12:30 1017 30.03 847 25.01 0.1 32.1 58 -7.1 19.1
12:35 1017 30.03 847 25.01 0.5 32.9 56 -7.2 19.1
12:40 1017 30.03 846 24.98 0.9 33.5 58 -6.6 20.2
12:45 1017 30.03 846 24.98 1.3 34.3 53 -7.3 18.9
12:50 1017 30.03 846 24.98 1.6 34.8 51 -7.5 18.5
12:55 1017 30.03 846 24.98 1.8 35.3 52 -7 19.5
13:00 1017 30.03 846 24.98 2.2 36 48 -7.8 18
13:05 1017 30.03 846 24.98 2.8 37 43 -8.7 16.4
13:10 1017 30.03 846 24.98 3.2 37.7 40 -9.1 15.7
13:15 1017 30.03 846 24.98 2.9 37.2 44 -8.2 17.2
13:20 1017 30.03 846 24.98 3.4 38.2 42 -8.4 16.8
13:25 1016 30 846 24.98 3.9 39 44 -7.4 18.7
13:30 1016 30 846 24.98 3.9 39 42 -7.9 17.8
13:35 1016 30 846 24.98 3.6 38.5 44 -7.4 18.7
13:40 1016 30 845 24.95 2.6 36.7 51 -6.5 20.3
13:45 1016 30 845 24.95 2.5 36.4 51 -6.7 19.9
13:50 1016 30 845 24.95 2.9 37.1 49 -6.8 19.8
13:55 1016 30 845 24.95 3.7 38.7 45 -7.1 19.2
14:00 1016 30 845 24.95 4 39.1 43 -7.5 18.6
14:05 1016 30 845 24.95 4.3 39.7 44 -6.8 19.7
14:10 1016 30 845 24.95 4.5 40.1 42 -7.4 18.8
14:15 1016 30 845 24.95 4.8 40.6 43 -6.9 19.7
14:20 1015 29.97 845 24.95 5.3 41.6 41 -7 19.4
14:25 1015 29.97 845 24.95 5.3 41.5 43 -6.5 20.4
14:30 1015 29.97 844 24.92 4.5 40.2 41 -7.7 18.1
14:35 1015 29.97 844 24.92 4.2 39.6 42 -7.6 18.4
14:40 1015 29.97 844 24.92 5 41 43 -6.6 20.2
14:45 1015 29.97 844 24.92 4.9 40.9 47 -5.4 22.2
14:50 1015 29.97 844 24.92 3.9 38.9 49 -5.9 21.4
14:55 1015 29.97 844 24.92 4.6 40.2 45 -6.2 20.8
15:00 1015 29.97 844 24.92 4.3 39.8 44 -6.9 19.6
15:05 1015 29.97 844 24.92 4.4 40 47 -5.8 21.6
15:10 1015 29.97 844 24.92 4.1 39.4 47 -6.3 20.7
15:15 1015 29.97 844 24.92 4.9 40.8 43 -6.5 20.2
15:20 1014 29.94 844 24.92 5.1 41.1 44 -6.3 20.7
15:25 1014 29.94 844 24.92 5.1 41.1 43 -6.6 20.1
15:30 1014 29.94 843 24.89 5.1 41.1 43 -6.4 20.6
15:35 1014 29.94 843 24.89 5.1 41.3 44 -6.2 20.8
15:40 1014 29.94 843 24.89 5 41 46 -5.7 21.7
15:45 1014 29.94 843 24.89 4.6 40.3 48 -5.5 22
15:50 1014 29.94 843 24.89 4.3 39.7 47 -6 21.2
15:55 1014 29.94 843 24.89 3.9 38.9 48 -6.1 20.9
16:00 1014 29.94 843 24.89 3.8 38.9 47 -6.6 20.2
16:05 1014 29.94 843 24.89 4.6 40.3 44 -6.6 20.2
16:10 1014 29.94 843 24.89 4.6 40.2 43 -6.9 19.6
16:15 1014 29.94 843 24.89 4.2 39.6 41 -8 17.6
16:20 1014 29.94 843 24.89 4.6 40.2 39 -8.2 17.2
16:25 1014 29.94 843 24.89 4 39.2 42 -7.9 17.8
16:30 1014 29.94 843 24.89 3.3 37.9 44 -7.8 17.9
16:35 1014 29.94 843 24.89 3.1 37.6 45 -7.8 18
16:40 1014 29.94 843 24.89 3.6 38.5 46 -7.1 19.3
16:45 1014 29.94 843 24.89 4 39.1 45 -7 19.4
16:50 1014 29.94 843 24.89 4.3 39.7 44 -6.8 19.8
16:55 1013 29.91 843 24.89 4 39.2 45 -6.8 19.7
17:00 1013 29.91 843 24.89 3.7 38.7 47 -6.6 20.1
17:05 1013 29.91 843 24.89 3.5 38.3 47 -6.9 19.6
17:10 1013 29.91 842 24.86 3.1 37.6 48 -7 19.5
17:15 1013 29.91 842 24.86 2.8 37 49 -6.9 19.5
17:20 1013 29.91 842 24.86 2.6 36.6 50 -6.9 19.7
17:25 1013 29.91 842 24.86 2.4 36.3 53 -6.3 20.7
17:30 1013 29.91 842 24.86 2.1 35.8 53 -6.5 20.3
17:35 1013 29.91 842 24.86 1.8 35.2 54 -6.6 20.2
17:40 1013 29.91 842 24.86 1.4 34.5 55 -6.7 19.9
17:45 1013 29.91 842 24.86 1.1 34.1 56 -6.8 19.8
17:50 1013 29.91 842 24.86 0.9 33.6 57 -6.7 20
17:55 1013 29.91 842 24.86 0.3 32.6 57 -7.1 19.1
18:00 1013 29.91 842 24.86 -0.4 31.3 60 -7.3 18.9
18:05 1013 29.91 842 24.86 -0.5 31.1 60 -7.2 19
18:10 1013 29.91 842 24.86 -0.1 31.8 58 -7.4 18.6
18:15 1013 29.91 842 24.86 0 32 58 -7.2 19
18:20 1013 29.91 842 24.86 -0.4 31.2 61 -7 19.4
18:25 1013 29.91 842 24.86 -0.7 30.8 62 -7 19.3
18:30 1013 29.91 842 24.86 -0.6 30.9 62 -7.1 19.2
18:35 1013 29.91 842 24.86 -0.7 30.8 64 -6.7 19.9
18:40 1013 29.91 842 24.86 -0.8 30.5 63 -7.1 19.2
18:45 1013 29.91 842 24.86 -0.6 30.9 62 -7.1 19.3
18:50 1013 29.91 842 24.86 -0.8 30.6 64 -6.8 19.8
18:55 1013 29.91 842 24.86 -0.8 30.6 60 -7.6 18.3
19:00 1013 29.91 842 24.86 -0.4 31.2 60 -7.2 19.1
19:05 1013 29.91 842 24.86 -0.7 30.7 62 -7.2 19
19:10 1013 29.91 842 24.86 -0.6 31 61 -7.1 19.2
19:15 1013 29.91 842 24.86 -0.6 30.9 63 -6.7 19.9
19:20 1013 29.91 842 24.86 -0.8 30.6 66 -6.3 20.7
19:25 1012 29.88 842 24.86 -0.8 30.5 66 -6.4 20.5
19:30 1012 29.88 842 24.86 -0.8 30.5 65 -6.6 20.2
19:35 1013 29.91 842 24.86 -0.7 30.8 63 -6.9 19.6
19:40 1012 29.88 842 24.86 -0.4 31.2 62 -6.8 19.7
19:45 1012 29.88 842 24.86 -0.4 31.3 61 -6.9 19.5
19:50 1012 29.88 841 24.83 -0.4 31.4 62 -6.8 19.8
19:55 1012 29.88 841 24.83 -0.4 31.4 61 -6.9 19.5
20:00 1012 29.88 841 24.83 -0.2 31.6 61 -6.8 19.7
20:05 1012 29.88 841 24.83 -0.2 31.7 60 -7 19.4
20:10 1012 29.88 841 24.83 -0.2 31.7 60 -7 19.5
20:15 1012 29.88 841 24.83 -0.1 31.8 60 -6.9 19.5
20:20 1012 29.88 841 24.83 -0.2 31.7 59 -7.1 19.1
20:25 1012 29.88 841 24.83 -0.1 31.9 59 -7.1 19.2
20:30 1012 29.88 841 24.83 -0.1 31.9 60 -6.9 19.6
20:35 1012 29.88 841 24.83 -0.2 31.6 61 -6.9 19.6
20:40 1012 29.88 841 24.83 -0.4 31.3 60 -7.2 19.1
20:45 1012 29.88 841 24.83 -0.3 31.4 60 -7.2 19
20:50 1011 29.85 841 24.83 -0.4 31.3 60 -7.2 19
20:55 1011 29.85 841 24.83 -0.5 31.1 61 -7.2 19.1
21:00 1011 29.85 841 24.83 -0.5 31.1 60 -7.3 18.9
21:05 1011 29.85 840 24.81 -0.4 31.3 59 -7.3 18.8
21:10 1011 29.85 840 24.81 -0.3 31.5 59 -7.4 18.6
21:15 1011 29.85 840 24.81 -0.3 31.5 58 -7.5 18.5
21:20 1011 29.85 840 24.81 -0.1 31.7 57 -7.6 18.3
21:25 1011 29.85 840 24.81 -0 32 56 -7.8 18
21:30 1011 29.85 840 24.81 0 32.1 57 -7.5 18.5
21:35 1011 29.85 840 24.81 -0.1 31.7 57 -7.6 18.3
21:40 1011 29.85 840 24.81 -0.1 31.8 58 -7.5 18.5
21:45 1011 29.85 840 24.81 -0 31.9 56 -7.7 18.2
21:50 1011 29.85 840 24.81 -0.1 31.8 57 -7.6 18.4
21:55 1011 29.85 840 24.81 -0.2 31.6 57 -7.8 17.9
22:00 1011 29.85 840 24.81 -0.1 31.8 57 -7.7 18.1
22:05 1010 29.83 840 24.81 -0.3 31.5 57 -7.7 18.2
22:10 1010 29.83 840 24.81 -0.3 31.4 57 -7.8 17.9
22:15 1010 29.83 840 24.81 -0.4 31.4 57 -7.8 17.9
22:20 1010 29.83 840 24.81 -0.4 31.3 58 -7.7 18.1
22:25 1010 29.83 840 24.81 -0.3 31.5 56 -8 17.6
22:30 1010 29.83 840 24.81 -0.1 31.8 56 -7.8 17.9
22:35 1010 29.83 839 24.78 -0.1 31.9 56 -7.9 17.8
22:40 1010 29.83 839 24.78 -0 31.9 56 -7.8 17.9
22:45 1010 29.83 839 24.78 0.1 32.1 56 -7.8 18
22:50 1010 29.83 839 24.78 0.1 32.2 54 -8 17.5
22:55 1010 29.83 839 24.78 0.1 32.2 56 -7.7 18.2
23:00 1010 29.83 839 24.78 0 32.1 56 -7.7 18.1
23:05 1010 29.83 839 24.78 0 32 57 -7.6 18.3
23:10 1010 29.83 839 24.78 0.1 32.2 56 -7.8 18
23:15 1010 29.83 839 24.78 0.2 32.3 55 -7.8 17.9
23:20 1010 29.83 839 24.78 0.2 32.4 55 -7.8 17.9
23:25 1010 29.83 840 24.81 0.3 32.5 56 -7.6 18.4
23:30 1010 29.83 839 24.78 0.3 32.6 55 -7.7 18.2
23:35 1010 29.83 839 24.78 0.4 32.7 55 -7.5 18.5
23:40 1010 29.83 839 24.78 0.3 32.5 55 -7.7 18.2
23:45 1010 29.83 839 24.78 0.3 32.5 56 -7.5 18.4
23:50 1010 29.83 839 24.78 0.4 32.7 58 -7 19.4
23:55 1010 29.83 839 24.78 0.4 32.6 59 -6.7 20
24:00 1010 29.83 839 24.78 0.3 32.6 60 -6.6 20.2